Time,TemperatureF,DewpointF,PressureIn,WindDirection,WindDirectionDegrees,WindSpeedMPH,WindSpeedGustMPH,Humidity,HourlyPrecipIn,Conditions,Clouds,dailyrainin,SoftwareType,DateUTC
2013-08-20 00:02:00,58.7,53.0,30.13,East,80,0.0,0.0,81,0.00,,,0.00,weatherlink.com 1.10,2013-08-20 07:02:00,
2013-08-20 00:17:00,58.3,53.0,30.13,East,80,0.0,0.0,82,0.00,,,0.00,weatherlink.com 1.10,2013-08-20 07:17:00,
2013-08-20 00:32:00,57.7,53.0,30.13,East,80,0.0,0.0,84,0.00,,,0.00,weatherlink.com 1.10,2013-08-20 07:32:00,
2013-08-20 00:47:00,56.8,52.0,30.13,East,80,0.0,0.0,85,0.00,,,0.00,weatherlink.com 1.10,2013-08-20 07:47:00,
2013-08-20 01:02:00,56.2,52.0,30.13,East,80,0.0,0.0,87,0.00,,,0.00,weatherlink.com 1.10,2013-08-20 08:02:00,
2013-08-20 01:17:00,55.7,52.0,30.13,East,80,0.0,0.0,88,0.00,,,0.00,weatherlink.com 1.10,2013-08-20 08:17:00,
2013-08-20 01:32:00,55.1,52.0,30.13,East,80,0.0,0.0,90,0.00,,,0.00,weatherlink.com 1.10,2013-08-20 08:32:00,
2013-08-20 01:47:00,54.7,52.0,30.13,East,80,0.0,0.0,90,0.00,,,0.00,weatherlink.com 1.10,2013-08-20 08:47:00,
2013-08-20 02:02:00,54.4,52.0,30.13,East,80,0.0,0.0,91,0.00,,,0.00,weatherlink.com 1.10,2013-08-20 09:02:00,
2013-08-20 02:17:00,54.3,52.0,30.13,East,80,0.0,0.0,91,0.00,,,0.00,weatherlink.com 1.10,2013-08-20 09:17:00,
2013-08-20 02:32:00,54.4,52.0,30.13,East,80,0.0,0.0,91,0.00,,,0.00,weatherlink.com 1.10,2013-08-20 09:32:00,
2013-08-20 02:47:00,54.5,52.0,30.13,East,80,0.0,0.0,91,0.00,,,0.00,weatherlink.com 1.10,2013-08-20 09:47:00,
2013-08-20 03:02:00,54.7,52.0,30.14,East,80,0.0,0.0,91,0.00,,,0.00,weatherlink.com 1.10,2013-08-20 10:02:00,
2013-08-20 03:17:00,54.8,53.0,30.14,East,80,0.0,0.0,92,0.00,,,0.00,weatherlink.com 1.10,2013-08-20 10:17:00,
2013-08-20 03:32:00,54.9,53.0,30.15,East,80,0.0,0.0,92,0.00,,,0.00,weatherlink.com 1.10,2013-08-20 10:32:00,
2013-08-20 03:47:00,54.9,53.0,30.15,East,80,0.0,0.0,92,0.00,,,0.00,weatherlink.com 1.10,2013-08-20 10:47:00,
2013-08-20 04:02:00,55.0,53.0,30.15,East,80,0.0,0.0,92,0.00,,,0.00,weatherlink.com 1.10,2013-08-20 11:02:00,
2013-08-20 04:18:00,55.1,53.0,30.15,East,80,0.0,0.0,92,0.00,,,0.00,weatherlink.com 1.10,2013-08-20 11:18:00,
2013-08-20 04:33:00,55.1,53.0,30.15,East,80,0.0,0.0,92,0.00,,,0.00,weatherlink.com 1.10,2013-08-20 11:33:00,
2013-08-20 04:48:00,55.2,52.0,30.16,East,80,0.0,0.0,90,0.00,,,0.00,weatherlink.com 1.10,2013-08-20 11:48:00,
2013-08-20 05:03:00,55.2,52.0,30.16,East,80,0.0,0.0,90,0.00,,,0.00,weatherlink.com 1.10,2013-08-20 12:03:00,
2013-08-20 05:18:00,55.2,53.0,30.16,East,80,0.0,0.0,91,0.00,,,0.00,weatherlink.com 1.10,2013-08-20 12:18:00,
2013-08-20 05:33:00,55.1,53.0,30.17,East,80,0.0,0.0,91,0.00,,,0.00,weatherlink.com 1.10,2013-08-20 12:33:00,
2013-08-20 05:48:00,54.9,53.0,30.16,East,80,0.0,0.0,92,0.00,,,0.00,weatherlink.com 1.10,2013-08-20 12:48:00,
2013-08-20 06:03:00,54.8,53.0,30.17,East,80,0.0,0.0,92,0.00,,,0.00,weatherlink.com 1.10,2013-08-20 13:03:00,
2013-08-20 06:18:00,54.6,52.0,30.16,East,81,0.0,0.0,91,0.00,,,0.00,weatherlink.com 1.10,2013-08-20 13:18:00,
2013-08-20 06:33:00,54.4,52.0,30.17,East,81,0.0,0.0,91,0.00,,,0.00,weatherlink.com 1.10,2013-08-20 13:33:00,
2013-08-20 06:48:00,54.2,52.0,30.17,East,81,0.0,0.0,92,0.00,,,0.00,weatherlink.com 1.10,2013-08-20 13:48:00,
2013-08-20 07:03:00,54.2,52.0,30.17,East,81,0.0,0.0,93,0.00,,,0.00,weatherlink.com 1.10,2013-08-20 14:03:00,
2013-08-20 07:18:00,54.4,53.0,30.18,NW,322,0.0,0.0,93,0.00,,,0.00,weatherlink.com 1.10,2013-08-20 14:18:00,
2013-08-20 07:34:00,54.3,52.0,30.18,NW,322,0.0,0.0,93,0.00,,,0.00,weatherlink.com 1.10,2013-08-20 14:34:00,
2013-08-20 07:48:00,55.6,53.0,30.18,NW,322,0.0,0.0,92,0.00,,,0.00,weatherlink.com 1.10,2013-08-20 14:48:00,
2013-08-20 08:03:00,57.3,54.0,30.18,NE,36,0.0,2.0,87,0.00,,,0.00,weatherlink.com 1.10,2013-08-20 15:03:00,
2013-08-20 08:18:00,59.1,54.0,30.17,NE,49,0.0,2.0,83,0.00,,,0.00,weatherlink.com 1.10,2013-08-20 15:18:00,
2013-08-20 08:33:00,60.6,53.0,30.17,NE,49,1.0,3.0,77,0.00,,,0.00,weatherlink.com 1.10,2013-08-20 15:33:00,
2013-08-20 08:48:00,61.4,54.0,30.17,NE,51,1.0,3.0,76,0.00,,,0.00,weatherlink.com 1.10,2013-08-20 15:48:00,
2013-08-20 09:03:00,62.5,53.0,30.16,NE,51,0.0,2.0,72,0.00,,,0.00,weatherlink.com 1.10,2013-08-20 16:03:00,
2013-08-20 09:18:00,63.6,52.0,30.16,NE,51,1.0,2.0,67,0.00,,,0.00,weatherlink.com 1.10,2013-08-20 16:18:00,
2013-08-20 09:33:00,64.3,53.0,30.16,NE,51,0.0,2.0,66,0.00,,,0.00,weatherlink.com 1.10,2013-08-20 16:33:00,
2013-08-20 09:48:00,65.1,54.0,30.15,West,271,0.0,4.0,67,0.00,,,0.00,weatherlink.com 1.10,2013-08-20 16:48:00,
2013-08-20 10:03:00,65.6,54.0,30.15,West,267,0.0,3.0,67,0.00,,,0.00,weatherlink.com 1.10,2013-08-20 17:03:00,
2013-08-20 10:18:00,67.6,55.0,30.15,SSW,204,0.0,2.0,65,0.00,,,0.00,weatherlink.com 1.10,2013-08-20 17:18:00,
2013-08-20 10:33:00,69.0,56.0,30.14,ENE,62,1.0,5.0,63,0.00,,,0.00,weatherlink.com 1.10,2013-08-20 17:33:00,
2013-08-20 10:48:00,68.8,56.0,30.15,NNE,13,0.0,5.0,63,0.00,,,0.00,weatherlink.com 1.10,2013-08-20 17:48:00,
2013-08-20 11:03:00,68.5,55.0,30.15,East,92,1.0,3.0,63,0.00,,,0.00,weatherlink.com 1.10,2013-08-20 18:03:00,
2013-08-20 11:18:00,69.2,56.0,30.14,East,88,1.0,4.0,63,0.00,,,0.00,weatherlink.com 1.10,2013-08-20 18:18:00,
2013-08-20 11:33:00,70.1,56.0,30.14,SSE,150,0.0,2.0,62,0.00,,,0.00,weatherlink.com 1.10,2013-08-20 18:33:00,
2013-08-20 11:48:00,70.6,57.0,30.14,ENE,72,0.0,2.0,62,0.00,,,0.00,weatherlink.com 1.10,2013-08-20 18:48:00,
2013-08-20 12:03:00,70.8,55.0,30.13,ESE,108,0.0,3.0,58,0.00,,,0.00,weatherlink.com 1.10,2013-08-20 19:03:00,
2013-08-20 12:19:00,70.9,56.0,30.13,East,86,1.0,3.0,60,0.00,,,0.00,weatherlink.com 1.10,2013-08-20 19:19:00,
2013-08-20 12:34:00,71.4,58.0,30.12,ENE,58,1.0,2.0,62,0.00,,,0.00,weatherlink.com 1.10,2013-08-20 19:34:00,
2013-08-20 12:49:00,72.6,56.0,30.12,NE,37,0.0,3.0,56,0.00,,,0.00,weatherlink.com 1.10,2013-08-20 19:49:00,
2013-08-20 13:04:00,72.1,58.0,30.11,East,88,5.0,5.0,62,0.00,,,0.00,weatherlink.com 1.10,2013-08-20 20:04:00,
2013-08-20 13:19:00,72.6,58.0,30.11,SE,128,0.0,4.0,60,0.00,,,0.00,weatherlink.com 1.10,2013-08-20 20:19:00,
2013-08-20 13:34:00,73.2,58.0,30.11,ESE,103,2.0,3.0,60,0.00,,,0.00,weatherlink.com 1.10,2013-08-20 20:34:00,
2013-08-20 13:49:00,72.9,58.0,30.10,East,83,0.0,4.0,59,0.00,,,0.00,weatherlink.com 1.10,2013-08-20 20:49:00,
2013-08-20 14:04:00,73.2,58.0,30.10,ESE,119,0.0,6.0,60,0.00,,,0.00,weatherlink.com 1.10,2013-08-20 21:04:00,
2013-08-20 14:19:00,74.0,59.0,30.10,NE,51,2.0,3.0,60,0.00,,,0.00,weatherlink.com 1.10,2013-08-20 21:19:00,
2013-08-20 14:34:00,74.4,58.0,30.10,SE,134,0.0,3.0,57,0.00,,,0.00,weatherlink.com 1.10,2013-08-20 21:34:00,
2013-08-20 14:49:00,75.0,59.0,30.09,ENE,61,0.0,3.0,57,0.00,,,0.00,weatherlink.com 1.10,2013-08-20 21:49:00,
2013-08-20 15:04:00,74.7,58.0,30.09,SE,144,0.0,6.0,56,0.00,,,0.00,weatherlink.com 1.10,2013-08-20 22:04:00,
2013-08-20 15:19:00,74.2,58.0,30.09,ESE,123,0.0,4.0,58,0.00,,,0.00,weatherlink.com 1.10,2013-08-20 22:19:00,
2013-08-20 15:34:00,73.6,58.0,30.09,East,85,0.0,7.0,59,0.00,,,0.00,weatherlink.com 1.10,2013-08-20 22:34:00,
2013-08-20 15:49:00,73.1,58.0,30.08,ENE,63,0.0,4.0,59,0.00,,,0.00,weatherlink.com 1.10,2013-08-20 22:49:00,
2013-08-20 16:04:00,73.1,58.0,30.08,East,98,0.0,2.0,60,0.00,,,0.00,weatherlink.com 1.10,2013-08-20 23:04:00,
2013-08-20 16:19:00,73.0,58.0,30.08,WNW,289,0.0,3.0,60,0.00,,,0.00,weatherlink.com 1.10,2013-08-20 23:19:00,
2013-08-20 16:34:00,72.9,59.0,30.08,North,355,0.0,2.0,63,0.00,,,0.00,weatherlink.com 1.10,2013-08-20 23:34:00,
2013-08-20 16:49:00,72.9,58.0,30.08,North,360,0.0,1.0,60,0.00,,,0.00,weatherlink.com 1.10,2013-08-20 23:49:00,
2013-08-20 17:04:00,72.8,59.0,30.08,NNW,348,0.0,3.0,63,0.00,,,0.00,weatherlink.com 1.10,2013-08-21 00:04:00,
2013-08-20 17:19:00,72.5,58.0,30.08,NNW,348,0.0,2.0,61,0.00,,,0.00,weatherlink.com 1.10,2013-08-21 00:19:00,
2013-08-20 17:34:00,72.4,59.0,30.07,SSE,163,1.0,2.0,63,0.00,,,0.00,weatherlink.com 1.10,2013-08-21 00:34:00,
2013-08-20 17:49:00,71.9,59.0,30.07,East,87,0.0,2.0,64,0.00,,,0.00,weatherlink.com 1.10,2013-08-21 00:49:00,
2013-08-20 18:04:00,71.8,59.0,30.07,East,87,0.0,2.0,65,0.00,,,0.00,weatherlink.com 1.10,2013-08-21 01:04:00,
2013-08-20 18:19:00,69.7,57.0,30.07,SSE,161,0.0,3.0,64,0.00,,,0.00,weatherlink.com 1.10,2013-08-21 01:19:00,
2013-08-20 18:34:00,68.0,57.0,30.07,SSW,211,0.0,4.0,69,0.00,,,0.00,weatherlink.com 1.10,2013-08-21 01:34:00,
2013-08-20 18:49:00,66.7,57.0,30.07,SSW,211,0.0,1.0,72,0.00,,,0.00,weatherlink.com 1.10,2013-08-21 01:49:00,
2013-08-20 19:04:00,65.9,57.0,30.07,SSW,211,0.0,2.0,74,0.00,,,0.00,weatherlink.com 1.10,2013-08-21 02:04:00,
2013-08-20 19:19:00,65.2,57.0,30.07,SSW,211,0.0,2.0,76,0.00,,,0.00,weatherlink.com 1.10,2013-08-21 02:19:00,
2013-08-20 19:34:00,64.6,57.0,30.07,SSW,211,1.0,1.0,76,0.00,,,0.00,weatherlink.com 1.10,2013-08-21 02:34:00,
2013-08-20 19:49:00,64.0,57.0,30.07,SSW,211,0.0,1.0,77,0.00,,,0.00,weatherlink.com 1.10,2013-08-21 02:49:00,
2013-08-20 20:04:00,63.4,56.0,30.07,SSW,211,0.0,1.0,78,0.00,,,0.00,weatherlink.com 1.10,2013-08-21 03:04:00,
2013-08-20 20:19:00,62.7,56.0,30.08,SSW,211,0.0,0.0,78,0.00,,,0.00,weatherlink.com 1.10,2013-08-21 03:19:00,
2013-08-20 20:34:00,61.8,55.0,30.08,SSW,211,0.0,0.0,79,0.00,,,0.00,weatherlink.com 1.10,2013-08-21 03:34:00,
2013-08-20 20:49:00,61.1,56.0,30.09,SSW,211,0.0,0.0,83,0.00,,,0.00,weatherlink.com 1.10,2013-08-21 03:49:00,
2013-08-20 21:04:00,60.3,56.0,30.09,SSW,211,0.0,0.0,84,0.00,,,0.00,weatherlink.com 1.10,2013-08-21 04:04:00,
2013-08-20 21:19:00,59.6,56.0,30.10,SSW,211,0.0,0.0,86,0.00,,,0.00,weatherlink.com 1.10,2013-08-21 04:19:00,
2013-08-20 21:34:00,59.0,55.0,30.10,SSW,211,0.0,0.0,87,0.00,,,0.00,weatherlink.com 1.10,2013-08-21 04:34:00,
2013-08-20 21:49:00,58.3,55.0,30.10,SSW,211,0.0,0.0,88,0.00,,,0.00,weatherlink.com 1.10,2013-08-21 04:49:00,
2013-08-20 22:04:00,57.8,55.0,30.10,SSW,211,0.0,0.0,90,0.00,,,0.00,weatherlink.com 1.10,2013-08-21 05:04:00,
2013-08-20 22:19:00,57.3,55.0,30.10,SSW,211,0.0,0.0,90,0.00,,,0.00,weatherlink.com 1.10,2013-08-21 05:19:00,
2013-08-20 22:34:00,56.8,54.0,30.10,SSW,211,0.0,0.0,91,0.00,,,0.00,weatherlink.com 1.10,2013-08-21 05:34:00,
2013-08-20 22:49:00,56.3,54.0,30.10,SSW,211,0.0,0.0,91,0.00,,,0.00,weatherlink.com 1.10,2013-08-21 05:49:00,
2013-08-20 23:04:00,55.9,54.0,30.10,SSW,211,0.0,0.0,92,0.00,,,0.00,weatherlink.com 1.10,2013-08-21 06:04:00,
2013-08-20 23:19:00,55.5,53.0,30.10,SSW,211,0.0,0.0,92,0.00,,,0.00,weatherlink.com 1.10,2013-08-21 06:19:00,
2013-08-20 23:34:00,55.1,53.0,30.10,SSW,211,0.0,0.0,93,0.00,,,0.00,weatherlink.com 1.10,2013-08-21 06:34:00,
2013-08-20 23:49:00,54.7,53.0,30.10,SSW,211,0.0,0.0,93,0.00,,,0.00,weatherlink.com 1.10,2013-08-21 06:49:00,